createdAt,value
2023-03-23T15:57:58.374Z,55.79
2023-03-23T16:00:27.800Z,55.63
2023-03-23T16:03:00.835Z,55.61
2023-03-23T16:05:28.068Z,55.63
2023-03-23T16:07:54.732Z,56.07
2023-03-23T16:10:23.908Z,56.00
2023-03-23T16:12:50.364Z,56.31
2023-03-23T16:15:17.524Z,55.66
2023-03-23T16:17:44.888Z,55.62
2023-03-23T16:20:13.067Z,55.83
2023-03-23T16:22:39.491Z,55.97
2023-03-23T16:25:07.341Z,55.95
2023-03-23T16:27:33.805Z,55.59
2023-03-23T16:30:04.510Z,55.67
2023-03-23T16:32:31.127Z,55.74
2023-03-23T16:34:57.539Z,55.85
2023-03-23T16:37:23.917Z,55.92
2023-03-23T16:39:50.450Z,56.10
2023-03-23T16:42:16.940Z,56.39
2023-03-23T16:44:43.314Z,56.37
2023-03-23T16:47:09.721Z,56.10
2023-03-23T16:49:36.893Z,56.83
2023-03-23T16:52:03.261Z,57.41
2023-03-23T16:54:29.703Z,57.76
2023-03-23T16:56:56.168Z,58.43
2023-03-23T16:59:22.574Z,58.97
2023-03-23T17:01:49.123Z,59.27
2023-03-23T17:04:15.743Z,59.50
2023-03-23T17:06:43.936Z,59.86
2023-03-23T17:09:10.330Z,60.06
2023-03-23T17:11:37.042Z,60.09
2023-03-23T17:14:03.929Z,60.23
2023-03-23T17:16:30.350Z,59.94
2023-03-23T17:18:56.758Z,60.08
2023-03-23T17:21:25.568Z,60.27
2023-03-23T17:23:52.366Z,60.14
2023-03-23T17:26:18.715Z,60.35
2023-03-23T17:28:45.109Z,60.46
2023-03-23T17:31:11.585Z,60.95
2023-03-23T17:33:37.934Z,60.99
2023-03-23T17:36:04.635Z,61.18
2023-03-23T17:38:31.975Z,61.56
2023-03-23T17:40:59.513Z,61.71
2023-03-23T17:43:26.055Z,61.77
2023-03-23T17:45:55.574Z,61.98
2023-03-23T17:48:22.966Z,62.14
2023-03-23T17:50:49.804Z,62.45
2023-03-23T17:53:18.443Z,62.81
2023-03-23T17:55:45.275Z,62.92
2023-03-23T17:58:12.136Z,62.95
2023-03-23T18:00:38.806Z,63.14
2023-03-23T18:03:05.233Z,63.41
2023-03-23T18:05:32.257Z,63.52
2023-03-23T18:08:00.722Z,63.49
2023-03-23T18:10:27.098Z,64.01
2023-03-23T18:12:53.517Z,64.42
2023-03-23T18:15:20.086Z,65.06
2023-03-23T18:17:48.177Z,65.15
2023-03-23T18:20:14.824Z,65.40
2023-03-23T18:22:41.265Z,65.42
2023-03-23T18:25:07.902Z,65.66
2023-03-23T18:27:34.969Z,65.92
2023-03-23T18:30:02.903Z,66.22
2023-03-23T18:32:29.413Z,66.25
2023-03-23T18:34:56.038Z,66.45
2023-03-23T18:37:22.390Z,66.43
2023-03-23T18:39:48.751Z,66.58
2023-03-23T18:42:15.333Z,66.61
2023-03-23T18:44:41.745Z,66.79
2023-03-23T18:47:08.161Z,66.66
2023-03-23T18:49:34.624Z,66.61
2023-03-23T18:52:01.078Z,66.59
2023-03-23T18:54:28.376Z,66.65
2023-03-23T18:56:55.657Z,66.69
2023-03-23T18:59:30.207Z,66.92
2023-03-23T19:01:57.608Z,66.90
2023-03-23T19:04:24.335Z,67.06
2023-03-23T19:06:50.717Z,66.60
2023-03-23T19:09:18.824Z,66.96
2023-03-23T19:11:47.169Z,66.87
2023-03-23T19:14:13.768Z,66.70
2023-03-23T19:16:41.380Z,66.73
2023-03-23T19:19:08.347Z,66.65
2023-03-23T19:21:35.150Z,66.69
2023-03-23T19:24:02.208Z,66.65
2023-03-23T19:26:37.576Z,66.70
2023-03-23T19:31:35.554Z,67.54
2023-03-23T19:34:02.010Z,67.44
2023-03-23T19:36:28.397Z,67.76
2023-03-23T19:38:54.930Z,67.94
2023-03-23T19:41:21.839Z,68.11
2023-03-23T19:43:48.208Z,68.07
2023-03-23T19:46:14.783Z,68.24
2023-03-23T19:48:41.997Z,68.33
2023-03-23T19:51:09.323Z,68.51
2023-03-23T19:53:36.382Z,68.28
2023-03-23T19:56:03.736Z,68.17
2023-03-23T19:58:32.362Z,68.50
2023-03-23T20:01:00.623Z,68.79
2023-03-23T20:03:26.984Z,69.12
2023-03-23T20:06:01.136Z,69.98
2023-03-23T20:08:27.671Z,70.08
2023-03-23T20:11:02.997Z,70.03
2023-03-23T20:13:29.344Z,69.76
2023-03-23T20:15:58.725Z,69.87
2023-03-23T20:18:27.488Z,69.81
2023-03-23T20:21:07.437Z,70.26
2023-03-23T20:23:35.008Z,69.88
2023-03-23T20:26:06.685Z,70.15
2023-03-23T20:28:33.168Z,70.00
2023-03-23T20:31:20.967Z,70.08
2023-03-23T20:33:59.674Z,70.00
2023-03-23T20:36:29.756Z,69.65
2023-03-23T20:38:57.325Z,69.27
2023-03-23T20:41:24.253Z,69.24
2023-03-23T20:43:50.819Z,68.80
2023-03-23T20:46:17.629Z,68.35
2023-03-23T20:48:44.061Z,68.13
2023-03-23T20:51:11.292Z,68.00
2023-03-23T20:53:39.490Z,67.54
2023-03-23T20:56:07.307Z,67.39
2023-03-23T20:58:34.329Z,67.41
2023-03-23T21:01:02.782Z,67.34
2023-03-23T21:03:32.651Z,67.01
2023-03-23T21:05:59.216Z,67.30
2023-03-23T21:08:25.582Z,67.01
2023-03-23T21:10:51.987Z,66.75
2023-03-23T21:13:18.672Z,66.83
2023-03-23T21:15:45.678Z,66.77
2023-03-23T21:18:12.428Z,66.83
2023-03-23T21:20:39.240Z,66.66
2023-03-23T21:23:05.835Z,66.66
2023-03-23T21:25:35.350Z,66.55
2023-03-23T21:28:02.888Z,66.49
2023-03-23T21:30:29.772Z,66.57
2023-03-23T21:32:56.437Z,66.57
2023-03-23T21:35:22.937Z,66.38
2023-03-23T21:37:49.899Z,66.21
2023-03-23T21:40:17.581Z,66.24
2023-03-23T21:42:45.135Z,66.06
2023-03-23T21:45:18.254Z,66.20
2023-03-23T21:47:44.935Z,66.21
2023-03-23T21:50:11.880Z,65.77
2023-03-23T21:52:41.923Z,65.49
2023-03-23T21:55:08.398Z,65.64
2023-03-23T21:57:35.029Z,65.29
2023-03-23T22:00:01.458Z,65.43
2023-03-23T22:02:28.828Z,65.33
2023-03-23T22:04:56.596Z,65.46
2023-03-23T22:07:23.915Z,65.35
2023-03-23T22:09:50.995Z,64.99
2023-03-23T22:12:17.643Z,65.19
2023-03-23T22:14:44.544Z,64.83
2023-03-23T22:17:11.207Z,64.92
2023-03-23T22:19:37.591Z,64.55
2023-03-23T22:22:04.130Z,64.47
2023-03-23T22:24:30.704Z,64.67
2023-03-23T22:26:57.061Z,64.56
2023-03-23T22:29:23.459Z,64.75
2023-03-23T22:31:50.307Z,64.56
2023-03-23T22:34:16.827Z,64.52
2023-03-23T22:36:43.222Z,64.14
2023-03-23T22:39:10.434Z,64.24
2023-03-23T22:41:39.948Z,64.33
2023-03-23T22:44:12.538Z,64.52
2023-03-23T22:46:39.920Z,64.48
2023-03-23T22:49:06.263Z,64.50
2023-03-23T22:51:32.673Z,64.78
2023-03-23T22:53:59.090Z,64.48
2023-03-23T22:56:25.642Z,64.64
2023-03-23T22:58:52.065Z,64.70
2023-03-23T23:01:21.463Z,64.64
2023-03-23T23:03:48.540Z,64.86
2023-03-23T23:06:17.444Z,64.81
2023-03-23T23:08:44.794Z,65.05
2023-03-23T23:11:13.884Z,65.57
2023-03-23T23:13:41.289Z,65.97
2023-03-23T23:16:09.401Z,66.12
2023-03-23T23:18:36.530Z,66.28
2023-03-23T23:21:06.580Z,66.23
2023-03-23T23:23:34.421Z,66.60
2023-03-23T23:26:01.410Z,66.62
2023-03-23T23:28:28.581Z,66.56
2023-03-23T23:30:56.296Z,66.54
2023-03-23T23:33:23.273Z,66.62
2023-03-23T23:35:50.138Z,66.73
2023-03-23T23:38:16.893Z,66.65
2023-03-23T23:40:46.013Z,66.93
2023-03-23T23:43:13.736Z,66.99
2023-03-23T23:45:40.276Z,66.87
2023-03-23T23:48:07.194Z,66.99
2023-03-23T23:50:34.362Z,66.90
2023-03-23T23:53:00.907Z,66.90
2023-03-23T23:55:27.858Z,67.04
2023-03-23T23:57:54.553Z,66.93
